Bloomdale, Ohio
Current Conditions -  °F | °C
As of 2:53 PM on Saturday 25 Oct 2014 (Local Time) from KFDY Reporting Station
Clear Clear  
Wind Chill: 72°   Ceiling: Unl
Heat Index: 72°   Visibility: 7mi
Dew Point: 52°   Wind: 17mph
Humidity: 49%   Direction: 260°W
Pressure: 29.82"   Gusts: 26mph
Location:  41.17°N, 83.56°W
Report Text: KFDY 251853Z AUTO 26015G23KT 7SM CLR 22/11 A2982 RMK AO2 PK WND 26026/1807 SLP092 T02220111
Loading
Personal Weather Stations






























Interactive Weather Map
Tropical Storm Tracking
New forecast layout! Learn more

10-Day Weather Forecast

Advertisements
Track Severe Weather on mobile